createdAt,value
2019-06-07T00:05:12.714Z,886.80
2019-06-07T00:07:45.324Z,884.27
2019-06-07T00:10:31.361Z,865.07
2019-06-07T00:12:45.649Z,865.87
2019-06-07T00:17:51.341Z,896.33
2019-06-07T00:20:26.421Z,897.10
2019-06-07T00:22:55.954Z,901.20
2019-06-07T00:25:28.399Z,909.30
2019-06-07T00:27:57.496Z,911.37
2019-06-07T00:30:42.362Z,926.27
2019-06-07T00:33:01.922Z,902.50
2019-06-07T00:35:34.507Z,906.50
2019-06-07T00:38:03.654Z,913.30
2019-06-07T00:40:34.876Z,906.57
2019-06-07T00:43:04.382Z,885.67
2019-06-07T00:45:34.170Z,902.00
2019-06-07T00:48:04.531Z,897.03
2019-06-07T00:50:36.745Z,896.43
2019-06-07T00:53:31.104Z,907.03
2019-06-07T00:55:36.529Z,921.90
2019-06-07T00:58:05.854Z,916.77
2019-06-07T01:00:35.315Z,903.97
2019-06-07T01:03:04.551Z,917.43
2019-06-07T01:05:33.588Z,907.60
2019-06-07T01:08:06.383Z,921.47
2019-06-07T01:10:53.214Z,928.53
2019-06-07T01:13:06.323Z,896.33
2019-06-07T01:15:35.428Z,927.10
2019-06-07T01:18:36.192Z,897.20
2019-06-07T01:20:36.283Z,898.47
2019-06-07T01:23:52.011Z,943.80
2019-06-07T01:25:38.613Z,907.50
2019-06-07T01:28:11.332Z,913.10
2019-06-07T01:30:41.314Z,929.40
2019-06-07T01:33:10.358Z,924.97
2019-06-07T01:35:40.530Z,915.13
2019-06-07T01:38:13.274Z,927.40
2019-06-07T01:40:43.645Z,950.13
2019-06-07T01:43:14.471Z,918.23
2019-06-07T01:45:44.285Z,929.70
2019-06-07T01:48:13.345Z,965.03
2019-06-07T01:50:42.406Z,936.67
2019-06-07T01:53:12.238Z,925.20
2019-06-07T01:55:41.339Z,900.30
2019-06-07T01:58:10.382Z,933.57
2019-06-07T02:00:45.139Z,937.73
2019-06-07T02:03:14.171Z,928.00
2019-06-07T02:05:43.274Z,953.37
2019-06-07T02:08:12.324Z,980.93
2019-06-07T02:10:44.957Z,954.73
2019-06-07T02:13:14.018Z,957.10
2019-06-07T02:15:43.900Z,986.93
2019-06-07T02:18:14.582Z,942.73
2019-06-07T02:20:44.812Z,944.17
2019-06-07T02:23:13.849Z,933.47
2019-06-07T02:25:50.052Z,925.77
2019-06-07T02:28:27.073Z,990.67
2019-06-07T02:30:59.590Z,969.63
2019-06-07T02:33:25.808Z,948.73
2019-06-07T02:35:53.794Z,955.67
2019-06-07T02:38:27.273Z,950.63
2019-06-07T02:40:54.312Z,956.47
2019-06-07T02:43:28.226Z,913.17
2019-06-07T02:46:21.213Z,982.13
2019-06-07T02:48:35.294Z,970.07
2019-06-07T02:50:59.256Z,998.90
2019-06-07T02:53:30.807Z,999.90
2019-06-07T02:56:34.849Z,997.90
2019-06-07T02:58:37.988Z,979.73
2019-06-07T03:01:09.303Z,999.90
2019-06-07T03:03:39.376Z,999.90
2019-06-07T03:06:06.618Z,995.77
2019-06-07T03:08:40.491Z,990.57
2019-06-07T03:11:10.331Z,971.80
2019-06-07T03:13:41.260Z,960.47
2019-06-07T03:16:11.950Z,970.27
2019-06-07T03:18:48.219Z,992.80
2019-06-07T03:24:16.141Z,999.90
2019-06-07T03:27:32.178Z,999.90
2019-06-07T03:29:19.373Z,997.07
2019-06-07T03:31:48.435Z,980.90
2019-06-07T03:34:19.035Z,970.97
2019-06-07T03:36:48.097Z,972.10
2019-06-07T03:39:18.421Z,947.97
2019-06-07T03:42:05.312Z,959.83
2019-06-07T03:44:20.581Z,956.30
2019-06-07T03:46:54.165Z,938.07
2019-06-07T03:49:23.547Z,962.60
2019-06-07T03:51:53.798Z,935.70
2019-06-07T03:54:24.160Z,943.43
2019-06-07T03:56:59.453Z,934.90
2019-06-07T03:59:31.341Z,943.00
2019-06-07T04:01:59.567Z,999.90
2019-06-07T04:04:32.272Z,999.90
2019-06-07T04:07:01.924Z,999.90
2019-06-07T04:09:35.061Z,999.90
2019-06-07T04:12:08.250Z,999.90
2019-06-07T04:14:38.479Z,999.90
2019-06-07T04:17:11.479Z,999.90
2019-06-07T04:19:43.231Z,993.33
2019-06-07T04:22:15.878Z,987.77
2019-06-07T04:24:45.326Z,999.90
2019-06-07T04:27:18.438Z,999.90
2019-06-07T04:30:06.557Z,999.90
2019-06-07T04:32:24.955Z,999.90
2019-06-07T04:34:54.015Z,999.90
2019-06-07T04:37:24.945Z,999.90
2019-06-07T04:39:59.978Z,999.90
2019-06-07T04:42:35.048Z,999.90
2019-06-07T04:45:06.109Z,999.90
2019-06-07T04:47:41.710Z,999.90
2019-06-07T04:50:12.222Z,999.90
2019-06-07T04:52:45.832Z,999.90
2019-06-07T04:55:15.103Z,999.90
2019-06-07T04:57:44.186Z,999.90
2019-06-07T05:00:48.886Z,999.90
2019-06-07T05:02:48.930Z,999.90
2019-06-07T05:05:17.990Z,999.90
2019-06-07T05:07:47.851Z,999.90
2019-06-07T05:10:19.376Z,999.90
2019-06-07T05:12:48.437Z,999.90
2019-06-07T05:15:18.345Z,999.90
2019-06-07T05:17:50.627Z,999.90
2019-06-07T05:20:23.186Z,999.90
2019-06-07T05:22:55.574Z,999.90
2019-06-07T05:25:33.205Z,999.90
2019-06-07T05:28:01.285Z,999.90
2019-06-07T05:31:02.037Z,999.90
2019-06-07T05:33:10.359Z,999.90
2019-06-07T05:35:43.437Z,999.90
2019-06-07T05:38:12.226Z,999.90
2019-06-07T05:40:48.907Z,999.90
2019-06-07T05:43:20.622Z,974.83
2019-06-07T05:45:50.322Z,986.40
2019-06-07T05:48:21.315Z,972.30
2019-06-07T05:50:57.026Z,982.13
2019-06-07T05:53:24.755Z,980.52
2019-06-07T05:55:54.884Z,949.58
2019-06-07T05:58:23.956Z,985.58
2019-06-07T06:00:55.020Z,977.33
2019-06-07T06:03:24.803Z,953.37
2019-06-07T06:05:57.538Z,909.17
2019-06-07T06:08:26.595Z,956.63
2019-06-07T06:10:56.726Z,889.93
2019-06-07T06:13:26.859Z,858.42
2019-06-07T06:16:02.154Z,840.08
2019-06-07T06:18:28.118Z,850.60
2019-06-07T06:21:16.486Z,855.27
2019-06-07T06:23:32.833Z,825.90
2019-06-07T06:26:02.795Z,807.60
2019-06-07T06:28:36.859Z,888.18
2019-06-07T06:31:06.643Z,871.60
2019-06-07T06:33:35.675Z,868.40
2019-06-07T06:36:05.690Z,890.27
2019-06-07T06:38:38.117Z,872.33
2019-06-07T06:41:15.861Z,857.60
2019-06-07T06:43:38.662Z,866.75
2019-06-07T06:46:08.165Z,878.80
2019-06-07T06:48:40.757Z,879.60
2019-06-07T06:51:10.758Z,857.80
2019-06-07T06:53:46.881Z,798.02
2019-06-07T06:56:18.120Z,823.58
2019-06-07T06:59:33.088Z,859.90
2019-06-07T07:04:10.093Z,830.10
2019-06-07T07:06:32.992Z,827.82
2019-06-07T07:09:05.480Z,866.80
2019-06-07T07:11:52.263Z,843.28
2019-06-07T07:14:05.250Z,875.75
2019-06-07T07:16:34.437Z,895.65
2019-06-07T07:19:06.435Z,900.20
2019-06-07T07:21:35.525Z,870.85
2019-06-07T07:24:21.036Z,902.77
2019-06-07T07:26:37.518Z,851.48
2019-06-07T07:29:06.619Z,859.25
2019-06-07T07:31:35.817Z,894.88
2019-06-07T07:36:39.636Z,895.60
2019-06-07T07:39:08.422Z,876.07
2019-06-07T07:41:38.790Z,925.25
2019-06-07T07:44:09.837Z,901.88
2019-06-07T07:46:38.842Z,924.65
2019-06-07T07:49:09.806Z,931.32
2019-06-07T07:51:39.850Z,980.08
2019-06-07T07:54:11.021Z,989.58
2019-06-07T07:56:45.311Z,972.72
2019-06-07T07:59:16.010Z,987.30
2019-06-07T08:01:53.919Z,997.40
2019-06-07T08:04:39.849Z,960.40
2019-06-07T08:06:56.002Z,999.90
2019-06-07T08:09:25.418Z,991.40
2019-06-07T08:11:59.963Z,998.60
2019-06-07T08:14:25.174Z,998.87
2019-06-07T08:17:00.212Z,999.70
2019-06-07T08:19:30.063Z,998.95
2019-06-07T08:22:02.166Z,995.42
2019-06-07T08:24:32.998Z,983.98
2019-06-07T08:27:24.570Z,987.72
2019-06-07T08:29:44.866Z,999.90
2019-06-07T08:32:09.799Z,999.90
2019-06-07T08:34:38.875Z,999.90
2019-06-07T08:37:08.742Z,999.90
2019-06-07T08:39:40.303Z,999.90
2019-06-07T08:42:17.517Z,999.90
2019-06-07T08:44:41.280Z,998.38
2019-06-07T08:47:19.985Z,998.85
2019-06-07T08:49:46.274Z,969.03
2019-06-07T08:52:16.126Z,960.35
2019-06-07T08:54:45.184Z,967.75
2019-06-07T08:57:21.392Z,949.02
2019-06-07T08:59:45.086Z,949.27
2019-06-07T09:02:23.937Z,982.05
2019-06-07T09:04:55.968Z,967.45
2019-06-07T09:07:23.275Z,899.73
2019-06-07T09:09:58.535Z,919.15
2019-06-07T09:12:24.458Z,913.72
2019-06-07T09:15:06.745Z,835.15
2019-06-07T09:17:26.346Z,844.58
2019-06-07T09:19:56.212Z,887.10
2019-06-07T09:22:30.667Z,837.35
2019-06-07T09:25:04.308Z,846.75
2019-06-07T09:27:31.373Z,884.25
2019-06-07T09:30:03.174Z,857.62
2019-06-07T09:32:32.798Z,864.52
2019-06-07T09:35:10.526Z,886.20
2019-06-07T09:38:04.278Z,915.40
2019-06-07T09:40:21.669Z,885.73
2019-06-07T09:42:40.120Z,862.00
2019-06-07T09:45:13.881Z,929.97
2019-06-07T09:47:39.962Z,924.02
2019-06-07T09:50:12.177Z,984.40
2019-06-07T09:52:57.895Z,895.03
2019-06-07T09:55:22.857Z,855.52
2019-06-07T09:57:45.164Z,913.70
2019-06-07T10:02:48.579Z,918.80
2019-06-07T10:05:19.339Z,858.55
2019-06-07T10:08:00.451Z,848.12
2019-06-07T10:12:53.161Z,868.40
2019-06-07T10:15:25.374Z,808.53
2019-06-07T10:17:58.597Z,786.50
2019-06-07T10:20:27.768Z,898.23
2019-06-07T10:22:57.627Z,851.05
2019-06-07T10:25:28.820Z,786.20
2019-06-07T10:27:59.914Z,817.83
2019-06-07T10:30:29.895Z,746.17
2019-06-07T10:33:00.272Z,755.77
2019-06-07T10:35:29.291Z,767.45
2019-06-07T10:38:02.397Z,764.48
2019-06-07T10:40:32.553Z,739.75
2019-06-07T10:43:03.231Z,835.77
2019-06-07T10:45:33.336Z,839.85
2019-06-07T10:48:03.651Z,833.42
2019-06-07T10:50:36.993Z,805.18
2019-06-07T10:53:06.468Z,778.25
2019-06-07T10:55:35.591Z,807.58
2019-06-07T10:58:05.013Z,772.75
2019-06-07T11:00:34.115Z,843.45
2019-06-07T11:03:05.841Z,785.25
2019-06-07T11:05:34.986Z,865.85
2019-06-07T11:08:04.300Z,798.37
2019-06-07T11:10:33.333Z,806.00
2019-06-07T11:13:02.433Z,765.33
2019-06-07T11:15:37.781Z,823.83
2019-06-07T11:18:10.180Z,784.87
2019-06-07T11:20:43.167Z,831.02
2019-06-07T11:23:12.359Z,779.17
2019-06-07T11:25:45.043Z,784.98
2019-06-07T11:28:14.726Z,809.55
2019-06-07T11:30:44.182Z,821.92
2019-06-07T11:33:15.759Z,830.95
2019-06-07T11:35:47.963Z,845.73
2019-06-07T11:38:18.725Z,763.85
2019-06-07T11:40:48.379Z,804.35
2019-06-07T11:43:17.430Z,785.65
2019-06-07T11:45:46.525Z,828.35
2019-06-07T11:48:15.618Z,862.33
2019-06-07T11:50:45.030Z,861.77
2019-06-07T11:53:14.638Z,897.02
2019-06-07T11:55:43.925Z,844.20
2019-06-07T11:58:16.479Z,868.37
2019-06-07T12:00:44.860Z,858.98
2019-06-07T12:03:15.966Z,877.85
2019-06-07T12:05:46.922Z,894.43
2019-06-07T12:08:19.657Z,824.15
2019-06-07T12:10:48.678Z,823.10
2019-06-07T12:13:18.989Z,832.00
2019-06-07T12:15:49.262Z,843.40
2019-06-07T12:18:22.199Z,800.90
2019-06-07T12:20:51.229Z,871.50
2019-06-07T12:23:20.390Z,847.65
2019-06-07T12:25:49.563Z,894.97
2019-06-07T12:28:18.842Z,864.80
2019-06-07T12:30:49.123Z,861.37
2019-06-07T12:33:19.578Z,851.40
2019-06-07T12:35:49.361Z,887.03
2019-06-07T12:38:19.354Z,934.58
2019-06-07T12:40:57.712Z,913.00
2019-06-07T12:43:20.877Z,993.15
2019-06-07T12:45:50.886Z,928.97
2019-06-07T12:48:22.922Z,972.87
2019-06-07T12:50:52.666Z,946.87
2019-06-07T12:53:26.433Z,947.10
2019-06-07T12:55:55.738Z,949.17
2019-06-07T12:58:34.704Z,969.60
2019-06-07T13:00:59.874Z,957.30
2019-06-07T13:03:29.011Z,933.15
2019-06-07T13:05:58.112Z,978.12
2019-06-07T13:08:28.200Z,958.30
2019-06-07T13:11:13.623Z,937.20
2019-06-07T13:13:28.275Z,959.33
2019-06-07T13:15:57.418Z,977.60
2019-06-07T13:18:26.511Z,958.90
2019-06-07T13:20:58.974Z,956.50
2019-06-07T13:23:28.922Z,999.90
2019-06-07T13:26:01.779Z,950.00
2019-06-07T13:28:32.323Z,971.12
2019-06-07T13:31:04.382Z,981.15
2019-06-07T13:33:38.421Z,989.05
2019-06-07T13:36:04.205Z,956.93
2019-06-07T13:38:35.231Z,970.75
2019-06-07T13:41:04.678Z,996.63
2019-06-07T13:43:33.797Z,985.00
2019-06-07T13:46:03.978Z,999.90
2019-06-07T13:48:34.644Z,975.53
2019-06-07T13:51:05.307Z,972.17
2019-06-07T13:53:34.739Z,988.40
2019-06-07T13:56:09.197Z,962.10
2019-06-07T13:58:40.675Z,999.90
2019-06-07T14:01:11.085Z,995.37
2019-06-07T14:03:41.840Z,999.85
2019-06-07T14:06:14.783Z,996.72
2019-06-07T14:08:47.480Z,999.32
2019-06-07T14:11:17.405Z,992.58
2019-06-07T14:13:47.180Z,999.90
2019-06-07T14:16:20.265Z,972.75
2019-06-07T14:18:53.126Z,975.83
2019-06-07T14:21:27.000Z,979.27
2019-06-07T14:23:57.595Z,963.27
2019-06-07T14:26:29.950Z,980.45
2019-06-07T14:28:59.247Z,983.25
2019-06-07T14:31:28.585Z,999.90
2019-06-07T14:33:57.686Z,976.65
2019-06-07T14:36:28.899Z,994.05
2019-06-07T14:38:58.150Z,967.68
2019-06-07T14:41:31.861Z,961.97
2019-06-07T14:44:03.174Z,977.20
2019-06-07T14:46:35.739Z,970.20
2019-06-07T14:49:04.818Z,994.20
2019-06-07T14:51:35.251Z,959.65
2019-06-07T14:54:09.928Z,945.27
2019-06-07T14:56:40.074Z,914.80
2019-06-07T14:59:12.755Z,990.00
2019-06-07T15:01:45.147Z,979.60
2019-06-07T15:04:20.012Z,933.17
2019-06-07T15:06:49.407Z,999.90
2019-06-07T15:09:24.404Z,981.23
2019-06-07T15:11:54.489Z,973.70
2019-06-07T15:14:23.581Z,949.92
2019-06-07T15:16:54.403Z,942.00
2019-06-07T15:19:24.273Z,991.85
2019-06-07T15:21:59.493Z,999.90
2019-06-07T15:24:32.554Z,986.88
2019-06-07T15:26:59.577Z,999.90
2019-06-07T15:29:29.757Z,963.52
2019-06-07T15:32:00.892Z,933.60
2019-06-07T15:34:34.346Z,950.25
2019-06-07T15:37:07.223Z,996.18
2019-06-07T15:39:36.638Z,936.30
2019-06-07T15:42:09.780Z,952.05
2019-06-07T15:44:39.548Z,941.60
2019-06-07T15:47:12.842Z,966.35
2019-06-07T15:49:45.772Z,962.97
2019-06-07T15:52:14.908Z,976.25
2019-06-07T15:54:44.655Z,961.17
2019-06-07T15:57:17.381Z,964.30
2019-06-07T15:59:48.615Z,992.22
2019-06-07T16:02:18.396Z,998.62
2019-06-07T16:04:47.481Z,999.90
2019-06-07T16:07:18.733Z,981.30
2019-06-07T16:09:51.626Z,995.83
2019-06-07T16:12:22.027Z,999.90
2019-06-07T16:14:51.087Z,990.62
2019-06-07T16:17:20.131Z,990.23
2019-06-07T16:19:49.742Z,983.25
2019-06-07T16:22:20.411Z,998.67
2019-06-07T16:24:49.525Z,998.12
2019-06-07T16:27:19.242Z,999.90
2019-06-07T16:29:48.947Z,978.00
2019-06-07T16:32:18.021Z,999.90
2019-06-07T16:34:48.003Z,998.78
2019-06-07T16:37:17.306Z,999.90
2019-06-07T16:39:46.603Z,999.90
2019-06-07T16:42:15.718Z,999.90
2019-06-07T16:44:45.645Z,999.90
2019-06-07T16:47:14.716Z,999.90
2019-06-07T16:49:45.390Z,999.90
2019-06-07T16:52:15.228Z,999.90
2019-06-07T16:54:45.761Z,985.97
2019-06-07T16:57:15.268Z,999.90
2019-06-07T16:59:48.950Z,995.52
2019-06-07T17:02:15.948Z,999.90
2019-06-07T17:04:46.070Z,999.90
2019-06-07T17:07:15.604Z,999.90
2019-06-07T17:09:50.569Z,980.52
2019-06-07T17:12:19.662Z,964.55
2019-06-07T17:14:48.826Z,970.35
2019-06-07T17:17:17.961Z,995.00
2019-06-07T17:19:47.141Z,999.90
2019-06-07T17:22:16.207Z,991.58
2019-06-07T17:24:45.561Z,999.90
2019-06-07T17:27:14.610Z,996.42
2019-06-07T17:29:44.223Z,972.35
2019-06-07T17:32:16.097Z,998.70
2019-06-07T17:34:46.227Z,999.90
2019-06-07T17:37:15.401Z,999.90
2019-06-07T17:39:45.002Z,999.90
2019-06-07T17:42:14.686Z,999.90
2019-06-07T17:44:47.708Z,999.90
2019-06-07T17:47:17.856Z,999.90
2019-06-07T17:49:48.274Z,999.90
2019-06-07T17:52:18.506Z,999.90
2019-06-07T17:54:48.446Z,999.90
2019-06-07T17:57:18.125Z,999.90
2019-06-07T17:59:48.597Z,999.90
2019-06-07T18:02:17.707Z,999.90
2019-06-07T18:04:49.467Z,999.90
2019-06-07T18:07:22.785Z,999.90
2019-06-07T18:09:53.661Z,944.50
2019-06-07T18:12:22.929Z,938.08
2019-06-07T18:14:55.229Z,926.25
2019-06-07T18:17:34.035Z,936.77
2019-06-07T18:19:56.343Z,933.27
2019-06-07T18:22:26.049Z,954.57
2019-06-07T18:24:58.946Z,999.90
2019-06-07T18:27:29.199Z,999.90
2019-06-07T18:30:00.289Z,4.85
2019-06-07T18:32:29.312Z,5.53
2019-06-07T18:35:00.478Z,5.60
2019-06-07T18:37:29.631Z,4.47
2019-06-07T18:40:00.271Z,3.70
2019-06-07T18:42:31.282Z,4.58
2019-06-07T18:45:00.560Z,4.80
2019-06-07T18:47:30.986Z,5.00
2019-06-07T18:50:04.831Z,5.78
2019-06-07T18:52:35.503Z,5.80
2019-06-07T18:55:07.232Z,5.20
2019-06-07T18:57:36.589Z,5.20
2019-06-07T19:00:08.935Z,4.65
2019-06-07T19:02:38.740Z,4.25
2019-06-07T19:05:09.769Z,3.30
2019-06-07T19:07:39.347Z,3.00
2019-06-07T19:10:11.098Z,2.83
2019-06-07T19:12:42.040Z,3.30
2019-06-07T19:15:13.621Z,2.50
2019-06-07T19:17:43.798Z,2.40
2019-06-07T19:20:15.010Z,3.13
2019-06-07T19:22:47.974Z,2.80
2019-06-07T19:25:17.591Z,2.83
2019-06-07T19:27:49.047Z,2.60
2019-06-07T19:30:21.874Z,2.60
2019-06-07T19:32:51.371Z,2.50
2019-06-07T19:35:22.702Z,2.33
2019-06-07T19:37:53.638Z,2.33
2019-06-07T19:40:25.859Z,2.00
2019-06-07T19:42:56.533Z,2.00
2019-06-07T19:45:30.389Z,1.90
2019-06-07T19:47:58.574Z,2.13
2019-06-07T19:50:28.383Z,1.80
2019-06-07T19:52:57.399Z,2.00
2019-06-07T19:55:26.529Z,1.70
2019-06-07T19:57:55.604Z,1.70
2019-06-07T20:00:24.980Z,1.70
2019-06-07T20:02:55.787Z,1.80
2019-06-07T20:05:29.554Z,1.50
2019-06-07T20:08:00.592Z,1.80
2019-06-07T20:10:30.190Z,1.60
2019-06-07T20:13:00.805Z,1.80
2019-06-07T20:15:30.260Z,1.50
2019-06-07T20:17:59.499Z,1.80
2019-06-07T20:20:31.953Z,1.90
2019-06-07T20:23:01.044Z,2.00
2019-06-07T20:25:32.479Z,1.60
2019-06-07T20:28:05.647Z,1.90
2019-06-07T20:30:35.006Z,1.60
2019-06-07T20:33:06.169Z,2.07
2019-06-07T20:35:35.786Z,1.90
2019-06-07T20:38:09.427Z,1.70
2019-06-07T20:40:38.787Z,1.77
2019-06-07T20:43:10.893Z,2.97
2019-06-07T20:45:43.135Z,2.00
2019-06-07T20:48:15.339Z,2.00
2019-06-07T20:50:45.662Z,2.10
2019-06-07T20:53:14.708Z,2.30
2019-06-07T20:55:43.783Z,2.00
2019-06-07T20:58:13.634Z,1.43
2019-06-07T21:00:43.375Z,1.67
2019-06-07T21:03:12.382Z,1.90
2019-06-07T21:05:41.423Z,1.70
2019-06-07T21:08:12.776Z,1.80
2019-06-07T21:10:41.127Z,1.60
2019-06-07T21:13:11.150Z,1.50
2019-06-07T21:15:48.369Z,1.57
2019-06-07T21:18:18.821Z,1.50
2019-06-07T21:20:44.415Z,1.40
2019-06-07T21:23:19.757Z,1.50
2019-06-07T21:25:49.483Z,1.40
2019-06-07T21:28:18.504Z,1.67
2019-06-07T21:30:49.145Z,1.60
2019-06-07T21:33:18.161Z,1.67
2019-06-07T21:35:48.481Z,1.50
2019-06-07T21:38:20.977Z,1.83
2019-06-07T21:40:50.093Z,1.70
2019-06-07T21:43:19.426Z,1.63
2019-06-07T21:46:01.531Z,1.67
2019-06-07T21:48:22.368Z,1.80
2019-06-07T21:50:51.647Z,1.80
2019-06-07T21:53:22.592Z,1.70
2019-06-07T21:55:52.765Z,2.10
2019-06-07T21:58:21.765Z,2.00
2019-06-07T22:00:53.085Z,1.70
2019-06-07T22:03:23.873Z,1.50
2019-06-07T22:05:53.981Z,1.60
2019-06-07T22:08:23.012Z,1.43
2019-06-07T22:10:52.066Z,1.30
2019-06-07T22:13:24.945Z,1.30
2019-06-07T22:15:54.005Z,1.33
2019-06-07T22:18:26.461Z,1.60
2019-06-07T22:20:55.461Z,1.20
2019-06-07T22:23:24.569Z,1.10
2019-06-07T22:25:54.106Z,1.33
2019-06-07T22:28:26.894Z,1.10
2019-06-07T22:30:56.275Z,1.10
2019-06-07T22:33:26.871Z,1.13
2019-06-07T22:35:57.404Z,1.20
2019-06-07T22:38:28.139Z,1.30
2019-06-07T22:40:57.862Z,1.00
2019-06-07T22:43:27.050Z,0.97
2019-06-07T22:45:59.546Z,1.23
2019-06-07T22:48:29.366Z,1.10
2019-06-07T22:51:01.999Z,1.10
2019-06-07T22:53:31.022Z,1.07
2019-06-07T22:56:02.907Z,1.10
2019-06-07T22:58:32.790Z,1.20
2019-06-07T23:01:02.392Z,0.90
2019-06-07T23:03:35.327Z,0.97
2019-06-07T23:06:05.657Z,1.00
2019-06-07T23:08:36.474Z,1.10
2019-06-07T23:11:07.306Z,0.77
2019-06-07T23:13:38.200Z,1.00
2019-06-07T23:16:09.385Z,1.00
2019-06-07T23:18:38.631Z,0.93
2019-06-07T23:21:15.817Z,0.90
2019-06-07T23:23:50.987Z,0.83
2019-06-07T23:26:20.600Z,1.00
2019-06-07T23:28:49.886Z,1.10
2019-06-07T23:31:19.069Z,1.10
2019-06-07T23:33:49.727Z,1.30
2019-06-07T23:36:21.407Z,0.90
2019-06-07T23:38:54.263Z,1.07
2019-06-07T23:41:23.785Z,0.90
2019-06-07T23:43:53.735Z,1.20
2019-06-07T23:46:28.625Z,0.83
2019-06-07T23:48:58.296Z,1.00
2019-06-07T23:51:27.391Z,0.97
2019-06-07T23:54:00.682Z,1.20
2019-06-07T23:56:29.858Z,0.90
2019-06-07T23:58:59.027Z,1.23
